createdAt,value
2022-09-07T08:45:54.105Z,25.60
2022-09-07T08:47:01.186Z,28.20
2022-09-07T08:47:54.070Z,28.50
2022-09-07T08:48:54.059Z,27.20
2022-09-07T08:49:54.041Z,25.90
2022-09-07T08:50:54.050Z,27.10
2022-09-07T08:51:54.010Z,24.80
2022-09-07T08:52:54.007Z,29.80
2022-09-07T08:53:53.980Z,25.80
2022-09-07T08:54:54.012Z,26.60
2022-09-07T08:55:53.978Z,24.00
2022-09-07T08:57:54.931Z,25.60
2022-09-07T08:58:53.930Z,25.80
2022-09-07T08:59:53.911Z,24.70
2022-09-07T09:01:30.620Z,24.90
2022-09-07T09:05:54.909Z,22.60
2022-09-07T09:06:54.039Z,24.20
2022-09-07T09:07:53.813Z,26.10
2022-09-07T09:08:53.801Z,25.10
2022-09-07T09:09:53.789Z,25.90
2022-09-07T09:10:53.781Z,25.20
2022-09-07T09:11:53.770Z,24.80
2022-09-07T09:12:53.750Z,24.10
2022-09-07T09:13:53.731Z,22.80
2022-09-07T09:14:53.723Z,25.30
2022-09-07T09:15:53.767Z,28.50
2022-09-07T09:16:53.711Z,23.80
2022-09-07T09:17:53.682Z,26.00
2022-09-07T09:18:53.672Z,22.90
2022-09-07T09:19:53.651Z,24.10
2022-09-07T09:20:53.646Z,24.00
2022-09-07T09:21:53.640Z,28.00
2022-09-07T09:22:53.611Z,25.60
2022-09-07T09:23:53.602Z,25.30
2022-09-07T09:24:53.591Z,26.20
2022-09-07T09:25:53.573Z,25.00
2022-09-07T09:26:53.574Z,24.80
2022-09-07T09:27:53.550Z,27.90
2022-09-07T09:28:53.542Z,29.30
2022-09-07T09:29:53.521Z,28.40
2022-09-07T09:30:53.562Z,26.00
2022-09-07T09:31:53.503Z,24.80
2022-09-07T09:32:53.483Z,24.50
2022-09-07T09:33:53.471Z,26.00
2022-09-07T09:34:53.462Z,22.70
2022-09-07T09:35:53.443Z,26.40
2022-09-07T09:36:53.442Z,23.20
2022-09-07T09:37:53.412Z,25.10
2022-09-07T09:38:53.412Z,24.70
2022-09-07T09:39:55.444Z,24.90
2022-09-07T09:40:53.384Z,26.00
2022-09-07T09:41:53.374Z,23.80
2022-09-07T09:42:53.352Z,26.50
2022-09-07T09:43:53.340Z,22.00
2022-09-07T09:44:53.332Z,23.00
2022-09-07T09:47:54.777Z,24.70
2022-09-07T09:48:53.283Z,23.30
2022-09-07T09:49:53.262Z,24.80
2022-09-07T09:52:54.230Z,22.40
2022-09-07T09:53:53.211Z,22.90
2022-09-07T09:54:53.202Z,21.40
2022-09-07T09:55:53.183Z,25.70
2022-09-07T09:56:53.190Z,22.30
2022-09-07T09:59:57.461Z,23.30
2022-09-07T10:04:53.082Z,24.30
2022-09-07T10:05:53.062Z,24.40
2022-09-07T10:06:53.065Z,26.00
2022-09-07T10:07:53.041Z,27.20
2022-09-07T10:08:53.023Z,23.40
2022-09-07T10:09:53.003Z,23.90
2022-09-07T10:10:53.000Z,29.10
2022-09-07T10:12:08.804Z,24.00
2022-09-07T10:12:53.977Z,24.00
2022-09-07T10:13:52.954Z,22.40
2022-09-07T10:14:52.943Z,22.10
2022-09-07T10:15:52.952Z,24.20
2022-09-07T10:16:52.944Z,24.40
2022-09-07T10:17:52.982Z,22.30
2022-09-07T10:18:52.894Z,19.90
2022-09-07T10:19:52.882Z,18.80
2022-09-07T10:20:52.864Z,19.60
2022-09-07T10:21:52.863Z,19.40
2022-09-07T10:22:52.842Z,20.50
2022-09-07T10:23:52.824Z,18.40
2022-09-07T10:24:52.814Z,19.10
2022-09-07T10:25:52.804Z,17.50
2022-09-07T10:26:52.803Z,18.70
2022-09-07T10:27:52.774Z,16.70
2022-09-07T10:29:08.543Z,16.80
2022-09-07T10:29:53.751Z,17.10
2022-09-07T10:30:52.760Z,16.90
2022-09-07T10:31:52.734Z,14.70
2022-09-07T10:32:52.715Z,12.60
2022-09-07T10:34:53.685Z,14.10
2022-09-07T10:35:52.677Z,14.60
2022-09-07T10:36:52.675Z,11.80
2022-09-07T10:37:52.654Z,11.90
2022-09-07T10:38:52.635Z,11.40
2022-09-07T10:39:54.824Z,10.10
2022-09-07T10:40:53.604Z,10.40
2022-09-07T10:41:52.614Z,10.20
2022-09-07T10:43:53.565Z,11.70
2022-09-07T10:44:52.563Z,9.70
2022-09-07T10:45:52.572Z,8.50
2022-09-07T10:46:59.896Z,11.00
2022-09-07T10:47:53.532Z,12.00
2022-09-07T10:48:52.507Z,13.70
2022-09-07T10:50:53.483Z,9.50
2022-09-07T10:51:52.474Z,10.70
2022-09-07T10:52:52.494Z,11.30
2022-09-07T10:54:53.427Z,11.60
2022-09-07T10:55:52.419Z,9.70
2022-09-07T10:56:52.405Z,12.20
2022-09-07T10:57:52.406Z,8.60
2022-09-07T10:59:07.622Z,7.70
2022-09-07T11:00:09.547Z,7.50
2022-09-07T11:00:53.355Z,10.70
2022-09-07T11:01:52.404Z,8.00
2022-09-07T11:03:53.350Z,9.20
2022-09-07T11:04:52.306Z,8.60
2022-09-07T11:05:52.286Z,8.80
2022-09-07T11:06:52.275Z,7.30
2022-09-07T11:07:52.276Z,7.50
2022-09-07T11:09:53.236Z,6.90
2022-09-07T11:10:52.226Z,9.50
2022-09-07T11:12:07.646Z,7.10
2022-09-07T11:12:53.215Z,7.00
2022-09-07T11:14:12.079Z,7.00
2022-09-07T11:14:53.176Z,10.20
2022-09-07T11:15:52.228Z,7.30
2022-09-07T11:16:52.395Z,7.10
2022-09-07T11:17:53.134Z,10.50
2022-09-07T11:18:52.267Z,8.50
2022-09-07T11:19:52.106Z,8.90
2022-09-07T11:20:52.099Z,9.80
2022-09-07T11:21:59.279Z,7.90
2022-09-07T11:22:53.223Z,9.40
2022-09-07T11:23:52.066Z,8.90
2022-09-07T11:25:53.036Z,7.60
2022-09-07T11:26:52.019Z,9.20
2022-09-07T11:27:52.019Z,8.90
2022-09-07T11:29:52.976Z,9.40
2022-09-07T11:30:53.790Z,10.10
2022-09-07T11:31:51.957Z,10.20
2022-09-07T11:32:51.960Z,7.50
2022-09-07T11:34:52.916Z,8.50
2022-09-07T11:35:51.897Z,7.20
2022-09-07T11:36:51.897Z,9.40
2022-09-07T11:37:51.895Z,8.30
2022-09-07T11:38:51.871Z,8.30
2022-09-07T11:39:51.883Z,7.80
2022-09-07T11:40:51.837Z,8.60
2022-09-07T11:41:51.818Z,7.80
2022-09-07T11:42:51.817Z,8.10
2022-09-07T11:43:51.819Z,8.80
2022-09-07T11:44:51.777Z,8.80
2022-09-07T11:45:51.833Z,7.50
2022-09-07T11:46:51.768Z,7.70
2022-09-07T11:47:51.775Z,7.50
2022-09-07T11:48:51.740Z,8.80
2022-09-07T11:49:54.160Z,7.80
2022-09-07T11:50:52.710Z,7.50
2022-09-07T11:51:53.540Z,7.80
2022-09-07T11:52:54.637Z,7.60
2022-09-07T11:53:51.666Z,8.70
2022-09-07T11:54:51.742Z,6.60
2022-09-07T11:55:51.638Z,9.50
2022-09-07T11:56:51.628Z,8.80
2022-09-07T11:57:55.462Z,8.10
2022-09-07T11:58:51.617Z,7.90
2022-09-07T11:59:51.588Z,8.80
2022-09-07T12:00:51.579Z,7.70
2022-09-07T12:01:51.558Z,9.20
2022-09-07T12:03:00.211Z,10.30
2022-09-07T12:03:52.584Z,7.10
2022-09-07T12:04:56.041Z,7.50
2022-09-07T12:05:51.508Z,9.10
2022-09-07T12:06:51.499Z,7.80
2022-09-07T12:07:51.518Z,7.10
2022-09-07T12:08:51.480Z,9.90
2022-09-07T12:09:51.489Z,8.20
2022-09-07T12:10:51.450Z,11.30
2022-09-07T12:11:51.437Z,9.20
2022-09-07T12:12:51.456Z,11.50
2022-09-07T12:13:51.410Z,9.80
2022-09-07T12:14:51.399Z,9.30
2022-09-07T12:15:51.434Z,9.80
2022-09-07T12:16:51.379Z,10.20
2022-09-07T12:17:51.369Z,10.50
2022-09-07T12:18:51.350Z,10.30
2022-09-07T12:19:51.340Z,9.60
2022-09-07T12:20:51.340Z,9.80
2022-09-07T12:21:51.321Z,9.50
2022-09-07T12:22:51.320Z,11.00
2022-09-07T12:23:51.280Z,9.80
2022-09-07T12:24:51.271Z,9.30
2022-09-07T12:25:51.282Z,9.80
2022-09-07T12:26:51.250Z,9.90
2022-09-07T12:27:51.231Z,10.30
2022-09-07T12:28:51.241Z,13.70
2022-09-07T12:29:51.209Z,9.80
2022-09-07T12:30:51.306Z,13.20
2022-09-07T12:32:00.070Z,12.50
2022-09-07T12:32:54.489Z,11.70
2022-09-07T12:33:51.161Z,12.50
2022-09-07T12:34:51.171Z,12.00
2022-09-07T12:35:51.152Z,14.30
2022-09-07T12:36:51.130Z,12.50
2022-09-07T12:37:51.135Z,13.00
2022-09-07T12:38:51.102Z,12.70
2022-09-07T12:39:51.124Z,11.60
2022-09-07T12:40:51.082Z,9.90
2022-09-07T12:42:31.833Z,13.00
2022-09-07T12:42:52.063Z,13.80
2022-09-07T12:43:51.052Z,13.40
2022-09-07T12:44:51.089Z,14.60
2022-09-07T12:45:51.120Z,13.30
2022-09-07T12:46:51.039Z,15.00
2022-09-07T12:47:50.982Z,16.20
2022-09-07T12:48:51.023Z,12.20
2022-09-07T12:49:50.955Z,12.10
2022-09-07T12:50:51.116Z,14.60
2022-09-07T12:52:15.194Z,16.60
2022-09-07T12:52:51.924Z,13.50
2022-09-07T12:53:55.492Z,11.40
2022-09-07T12:55:09.943Z,11.20
2022-09-07T12:57:29.120Z,10.70
2022-09-07T12:57:51.855Z,11.60
2022-09-07T12:58:50.864Z,10.00
2022-09-07T12:59:50.835Z,9.20
2022-09-07T13:00:50.824Z,12.70
2022-09-07T13:01:50.896Z,12.50
2022-09-07T13:02:50.864Z,14.70
2022-09-07T13:03:51.862Z,13.10
2022-09-07T13:04:50.776Z,12.20
2022-09-07T13:05:50.755Z,12.30
2022-09-07T13:07:06.078Z,12.00
2022-09-07T13:07:51.736Z,14.50
2022-09-07T13:08:50.736Z,10.90
2022-09-07T13:09:50.706Z,11.50
2022-09-07T13:10:50.699Z,9.70
2022-09-07T13:11:50.684Z,12.90
2022-09-07T13:12:54.223Z,10.60
2022-09-07T13:14:08.861Z,10.20
2022-09-07T13:14:51.732Z,9.30
2022-09-07T13:15:50.650Z,10.40
2022-09-07T13:17:51.607Z,9.60
2022-09-07T13:18:50.620Z,10.20
2022-09-07T13:19:50.588Z,11.00
2022-09-07T13:20:50.579Z,11.70
2022-09-07T13:21:50.558Z,10.30
2022-09-07T13:22:50.551Z,9.60
2022-09-07T13:23:50.549Z,10.80
2022-09-07T13:24:50.630Z,11.40
2022-09-07T13:25:50.520Z,13.80
2022-09-07T13:26:51.296Z,10.20
2022-09-07T13:27:51.249Z,10.00
2022-09-07T13:28:50.489Z,14.80
2022-09-07T13:29:50.460Z,11.30
2022-09-07T13:30:50.480Z,10.90
2022-09-07T13:31:50.439Z,11.10
2022-09-07T13:33:51.421Z,12.20
2022-09-07T13:34:50.452Z,13.20
2022-09-07T13:35:50.389Z,10.20
2022-09-07T13:36:50.382Z,11.40
2022-09-07T13:37:50.360Z,11.20
2022-09-07T13:38:50.361Z,10.90
2022-09-07T13:39:50.391Z,11.70
2022-09-07T13:40:50.330Z,10.30
2022-09-07T13:41:50.311Z,12.00
2022-09-07T13:42:50.301Z,15.10
2022-09-07T13:43:50.292Z,11.90
2022-09-07T13:44:50.293Z,10.20
2022-09-07T13:45:50.322Z,14.80
2022-09-07T13:46:50.253Z,15.00
2022-09-07T13:47:50.241Z,9.90
2022-09-07T13:48:50.232Z,9.70
2022-09-07T13:49:53.719Z,17.00
2022-09-07T13:50:51.222Z,10.50
2022-09-07T13:51:50.193Z,12.20
2022-09-07T13:52:50.183Z,11.50
2022-09-07T13:53:50.166Z,12.60
2022-09-07T13:54:50.174Z,13.30
2022-09-07T13:55:50.141Z,16.30
2022-09-07T13:56:50.132Z,14.80
2022-09-07T13:57:50.120Z,16.70
2022-09-07T13:58:50.103Z,11.90
2022-09-07T13:59:50.103Z,16.10
2022-09-07T14:00:50.083Z,16.20
2022-09-07T14:01:50.090Z,15.60
2022-09-07T14:02:53.268Z,16.20
2022-09-07T14:03:51.034Z,17.70
2022-09-07T14:04:50.058Z,12.60
2022-09-07T14:05:50.014Z,12.50
2022-09-07T14:06:50.034Z,13.30
2022-09-07T14:07:49.987Z,15.00
2022-09-07T14:08:49.984Z,13.70
2022-09-07T14:09:49.983Z,14.40
2022-09-07T14:10:49.957Z,12.50
2022-09-07T14:11:49.947Z,12.40
2022-09-07T14:12:49.940Z,12.20
2022-09-07T14:13:49.916Z,12.00
2022-09-07T14:14:49.926Z,14.70
2022-09-07T14:15:49.896Z,12.40
2022-09-07T14:16:49.976Z,13.00
2022-09-07T14:17:49.866Z,12.40
2022-09-07T14:18:49.867Z,13.10
2022-09-07T14:19:49.861Z,13.30
2022-09-07T14:20:49.838Z,12.20
2022-09-07T14:21:49.817Z,12.90
2022-09-07T14:22:53.409Z,9.70
2022-09-07T14:23:50.011Z,12.00
2022-09-07T14:24:49.799Z,12.20
2022-09-07T14:26:50.779Z,10.40
2022-09-07T14:27:49.751Z,9.80
2022-09-07T14:28:49.748Z,13.80
2022-09-07T14:29:49.758Z,12.00
2022-09-07T14:30:49.778Z,12.00
2022-09-07T14:31:49.709Z,10.70
2022-09-07T14:32:49.708Z,11.50
2022-09-07T14:33:49.680Z,13.60
2022-09-07T14:34:49.670Z,14.80
2022-09-07T14:35:49.670Z,10.20
2022-09-07T14:36:49.656Z,11.30
2022-09-07T14:37:49.640Z,10.80
2022-09-07T14:39:05.235Z,11.40
2022-09-07T14:39:50.775Z,12.80
2022-09-07T14:40:50.632Z,10.40
2022-09-07T14:41:49.583Z,11.80
2022-09-07T14:42:49.894Z,8.90
2022-09-07T14:43:50.484Z,11.20
2022-09-07T14:44:49.576Z,9.90
2022-09-07T14:45:49.732Z,10.40
2022-09-07T14:46:54.607Z,11.60
2022-09-07T14:47:52.103Z,11.90
2022-09-07T14:48:49.493Z,11.20
2022-09-07T14:49:49.483Z,8.40
2022-09-07T14:51:01.010Z,11.30
2022-09-07T14:51:50.463Z,10.50
2022-09-07T14:53:34.139Z,8.80
2022-09-07T14:53:50.442Z,9.00
2022-09-07T14:55:38.473Z,10.80
2022-09-07T14:56:38.442Z,8.50
2022-09-07T14:57:38.440Z,10.50
2022-09-07T14:58:38.422Z,7.30
2022-09-07T14:59:38.415Z,8.70
2022-09-07T15:00:38.656Z,9.10
2022-09-07T15:01:38.763Z,9.10
2022-09-07T15:02:38.406Z,11.50
2022-09-07T15:03:38.366Z,12.40
2022-09-07T15:04:38.378Z,10.60
2022-09-07T15:05:38.362Z,10.20
2022-09-07T15:07:39.314Z,12.30
2022-09-07T15:08:38.644Z,11.10
2022-09-07T15:09:38.307Z,13.10
2022-09-07T15:10:38.392Z,11.80
2022-09-07T15:11:38.275Z,9.90
2022-09-07T15:12:39.060Z,9.40
2022-09-07T15:13:38.244Z,7.80
2022-09-07T15:14:38.225Z,8.80
2022-09-07T15:15:38.214Z,9.20
2022-09-07T15:16:38.401Z,10.70
2022-09-07T15:17:45.534Z,11.80
2022-09-07T15:18:39.175Z,9.00
2022-09-07T15:19:38.165Z,7.90
2022-09-07T15:20:38.154Z,9.00
2022-09-07T15:21:38.161Z,8.50
2022-09-07T15:22:38.125Z,10.20
2022-09-07T15:23:38.116Z,12.10
2022-09-07T15:24:38.104Z,7.80
2022-09-07T15:25:38.097Z,7.40
2022-09-07T15:27:39.066Z,9.50
2022-09-07T15:29:39.036Z,9.10
2022-09-07T15:30:38.036Z,7.10
2022-09-07T15:31:43.636Z,7.70
2022-09-07T15:32:39.044Z,8.10
2022-09-07T15:33:37.995Z,9.30
2022-09-07T15:34:37.977Z,9.30
2022-09-07T15:35:37.968Z,8.30
2022-09-07T15:36:37.966Z,11.20
2022-09-07T15:39:38.985Z,8.60
2022-09-07T15:40:37.898Z,10.40
2022-09-07T15:41:37.908Z,10.00
2022-09-07T15:43:39.259Z,12.00
2022-09-07T15:44:38.149Z,9.80
2022-09-07T15:45:39.677Z,9.30
2022-09-07T15:46:38.249Z,12.50
2022-09-07T15:47:50.817Z,11.80
2022-09-07T15:48:38.804Z,10.20
2022-09-07T15:49:40.067Z,10.60
2022-09-07T15:50:37.781Z,11.50
2022-09-07T15:52:07.936Z,8.90
2022-09-07T15:52:38.768Z,11.20
2022-09-07T15:54:39.840Z,10.80
2022-09-07T15:55:37.719Z,11.40
2022-09-07T15:56:38.039Z,8.90
2022-09-07T15:58:05.572Z,10.60
2022-09-07T15:58:38.679Z,10.60
2022-09-07T15:59:37.670Z,11.10
2022-09-07T16:00:37.650Z,10.20
2022-09-07T16:01:53.608Z,12.80
2022-09-07T16:03:38.721Z,12.70
2022-09-07T16:04:38.719Z,13.30
2022-09-07T16:05:39.955Z,12.40
2022-09-07T16:06:37.580Z,8.50
2022-09-07T16:08:38.858Z,10.50
2022-09-07T16:09:37.971Z,9.60
2022-09-07T16:10:37.529Z,11.70
2022-09-07T16:11:37.533Z,9.10
2022-09-07T16:13:38.491Z,11.00
2022-09-07T16:14:37.472Z,10.70
2022-09-07T16:15:37.462Z,12.50
2022-09-07T16:17:47.349Z,11.00
2022-09-07T16:18:39.025Z,12.70
2022-09-07T16:19:41.127Z,10.00
2022-09-07T16:20:37.392Z,9.80
2022-09-07T16:21:41.131Z,10.10
2022-09-07T16:23:38.360Z,10.60
2022-09-07T16:24:37.340Z,11.30
2022-09-07T16:25:37.333Z,13.10
2022-09-07T16:26:37.333Z,14.10
2022-09-07T16:27:37.303Z,12.70
2022-09-07T16:28:37.292Z,12.40
2022-09-07T16:29:37.904Z,9.60
2022-09-07T16:30:37.274Z,12.00
2022-09-07T16:31:37.864Z,9.90
2022-09-07T16:32:44.950Z,12.90
2022-09-07T16:33:38.299Z,9.20
2022-09-07T16:34:37.213Z,10.10
2022-09-07T16:35:37.202Z,10.30
2022-09-07T16:36:37.244Z,10.00
2022-09-07T16:37:37.424Z,8.30
2022-09-07T16:38:45.135Z,13.30
2022-09-07T16:39:38.177Z,8.10
2022-09-07T16:40:37.146Z,9.30
2022-09-07T16:41:37.153Z,11.00
2022-09-07T16:42:37.639Z,11.30
2022-09-07T16:43:37.104Z,8.90
2022-09-07T16:44:37.085Z,10.10
2022-09-07T16:46:38.064Z,9.90
2022-09-07T16:47:37.063Z,10.90
2022-09-07T16:48:37.154Z,9.60
2022-09-07T16:49:37.026Z,9.70
2022-09-07T16:50:37.015Z,7.70
2022-09-07T16:51:36.996Z,9.70
2022-09-07T16:52:37.003Z,10.70
2022-09-07T16:53:36.976Z,9.30
2022-09-07T16:54:36.967Z,12.10
2022-09-07T16:55:36.945Z,9.00
2022-09-07T16:56:39.085Z,8.70
2022-09-07T16:58:38.109Z,9.30
2022-09-07T16:59:36.897Z,9.50
2022-09-07T17:00:36.888Z,11.80
2022-09-07T17:01:36.926Z,8.60
2022-09-07T17:02:36.867Z,8.40
2022-09-07T17:03:36.952Z,7.90
2022-09-07T17:04:36.846Z,9.40
2022-09-07T17:05:36.824Z,9.20
2022-09-07T17:06:36.817Z,7.80
2022-09-07T17:07:36.797Z,10.40
2022-09-07T17:08:36.806Z,10.00
2022-09-07T17:09:36.778Z,10.00
2022-09-07T17:10:36.768Z,12.70
2022-09-07T17:11:36.741Z,9.90
2022-09-07T17:12:36.755Z,9.30
2022-09-07T17:13:36.819Z,7.80
2022-09-07T17:14:36.716Z,9.00
2022-09-07T17:15:36.700Z,7.20
2022-09-07T17:16:36.730Z,8.40
2022-09-07T17:17:36.708Z,7.10
2022-09-07T17:19:37.639Z,10.10
2022-09-07T17:20:36.638Z,7.40
2022-09-07T17:21:36.637Z,7.50
2022-09-07T17:22:36.618Z,8.30
2022-09-07T17:23:45.674Z,7.90
2022-09-07T17:24:37.581Z,7.20
2022-09-07T17:25:36.569Z,6.50
2022-09-07T17:26:36.560Z,7.50
2022-09-07T17:27:36.540Z,10.70
2022-09-07T17:28:36.769Z,8.10
2022-09-07T17:29:37.777Z,8.70
2022-09-07T17:30:39.268Z,7.80
2022-09-07T17:32:37.516Z,7.30
2022-09-07T17:33:36.481Z,8.50
2022-09-07T17:34:36.469Z,6.60
2022-09-07T17:35:37.468Z,8.80
2022-09-07T17:36:36.441Z,6.00
2022-09-07T17:37:36.419Z,8.60
2022-09-07T17:39:37.439Z,7.40
2022-09-07T17:40:36.400Z,6.30
2022-09-07T17:41:36.361Z,7.60
2022-09-07T17:43:45.273Z,5.70
2022-09-07T17:44:38.436Z,6.50
2022-09-07T17:45:36.779Z,6.30
2022-09-07T17:46:36.314Z,6.70
2022-09-07T17:47:36.291Z,8.50
2022-09-07T17:48:36.281Z,8.40
2022-09-07T17:49:36.283Z,7.00
2022-09-07T17:50:36.252Z,7.40
2022-09-07T17:51:36.245Z,8.40
2022-09-07T17:52:40.247Z,6.80
2022-09-07T17:53:36.221Z,7.60
2022-09-07T17:54:37.047Z,8.10
2022-09-07T17:55:36.208Z,6.50
2022-09-07T17:56:36.172Z,7.60
2022-09-07T17:57:36.171Z,9.20
2022-09-07T17:58:36.148Z,9.20
2022-09-07T18:00:37.169Z,8.70
2022-09-07T18:01:36.137Z,7.00
2022-09-07T18:02:36.095Z,8.30
2022-09-07T18:03:36.222Z,6.70
2022-09-07T18:04:36.148Z,6.50
2022-09-07T18:05:36.061Z,9.30
2022-09-07T18:06:36.041Z,8.20
2022-09-07T18:07:36.043Z,9.00
2022-09-07T18:08:36.012Z,6.80
2022-09-07T18:09:36.020Z,8.30
2022-09-07T18:11:45.953Z,8.20
2022-09-07T18:12:36.963Z,8.50
2022-09-07T18:13:37.185Z,7.20
2022-09-07T18:14:35.952Z,9.10
2022-09-07T18:15:36.460Z,10.70
2022-09-07T18:16:35.964Z,8.00
2022-09-07T18:17:35.942Z,8.00
2022-09-07T18:18:35.891Z,8.60
2022-09-07T18:19:35.892Z,8.50
2022-09-07T18:20:35.862Z,7.00
2022-09-07T18:21:35.863Z,9.00
2022-09-07T18:22:35.841Z,8.00
2022-09-07T18:23:35.834Z,8.70
2022-09-07T18:24:36.834Z,9.40
2022-09-07T18:25:35.804Z,10.00
2022-09-07T18:26:35.783Z,7.90
2022-09-07T18:27:35.784Z,8.20
2022-09-07T18:29:37.031Z,8.70
2022-09-07T18:30:35.743Z,10.90
2022-09-07T18:31:35.801Z,10.00
2022-09-07T18:32:35.712Z,9.70
2022-09-07T18:33:35.703Z,11.20
2022-09-07T18:34:35.703Z,10.20
2022-09-07T18:35:35.681Z,11.40
2022-09-07T18:36:35.685Z,10.90
2022-09-07T18:37:35.657Z,8.40
2022-09-07T18:38:35.633Z,11.90
2022-09-07T18:39:35.830Z,13.00
2022-09-07T18:40:38.399Z,10.50
2022-09-07T18:41:35.655Z,9.60
2022-09-07T18:42:35.584Z,8.40
2022-09-07T18:43:35.594Z,11.70
2022-09-07T18:45:36.618Z,11.20
2022-09-07T18:46:35.601Z,9.10
2022-09-07T18:47:35.515Z,12.40
2022-09-07T18:48:35.505Z,10.30
2022-09-07T18:49:35.503Z,14.20
2022-09-07T18:50:35.474Z,11.90
2022-09-07T18:52:51.562Z,8.20
2022-09-07T18:52:52.636Z,9.20
2022-09-07T18:53:36.442Z,9.00
2022-09-07T18:54:35.451Z,9.80
2022-09-07T18:55:35.414Z,11.70
2022-09-07T18:56:35.395Z,9.00
2022-09-07T18:57:36.472Z,11.50
2022-09-07T18:58:35.384Z,11.10
2022-09-07T18:59:35.393Z,8.60
2022-09-07T19:00:35.388Z,12.10
2022-09-07T19:01:35.466Z,10.20
2022-09-07T19:02:35.393Z,10.60
2022-09-07T19:03:35.315Z,12.30
2022-09-07T19:05:52.912Z,10.30
2022-09-07T19:06:36.272Z,9.30
2022-09-07T19:07:35.479Z,10.80
2022-09-07T19:08:35.245Z,10.10
2022-09-07T19:09:35.234Z,8.80
2022-09-07T19:10:35.236Z,9.50
2022-09-07T19:11:35.214Z,10.60
2022-09-07T19:12:35.194Z,13.20
2022-09-07T19:13:35.232Z,11.70
2022-09-07T19:14:35.176Z,10.10
2022-09-07T19:15:37.418Z,10.70
2022-09-07T19:16:35.178Z,11.70
2022-09-07T19:17:35.135Z,11.30
2022-09-07T19:18:35.122Z,13.00
2022-09-07T19:19:35.114Z,10.60
2022-09-07T19:20:35.125Z,10.00
2022-09-07T19:21:35.084Z,11.90
2022-09-07T19:22:35.081Z,12.10
2022-09-07T19:23:35.065Z,11.40
2022-09-07T19:24:35.046Z,9.80
2022-09-07T19:25:35.047Z,12.60
2022-09-07T19:26:35.015Z,13.70
2022-09-07T19:27:35.006Z,11.80
2022-09-07T19:28:34.985Z,12.00
2022-09-07T19:29:34.979Z,11.00
2022-09-07T19:30:34.997Z,13.10
2022-09-07T19:31:35.020Z,14.30
2022-09-07T19:32:34.948Z,13.40
2022-09-07T19:33:34.935Z,13.40
2022-09-07T19:34:34.914Z,14.00
2022-09-07T19:35:34.918Z,13.00
2022-09-07T19:36:34.885Z,11.80
2022-09-07T19:37:34.875Z,13.10
2022-09-07T19:38:34.864Z,15.50
2022-09-07T19:39:34.906Z,13.60
2022-09-07T19:40:34.853Z,16.70
2022-09-07T19:41:34.828Z,12.30
2022-09-07T19:42:34.816Z,12.70
2022-09-07T19:43:34.805Z,15.70
2022-09-07T19:44:34.786Z,12.40
2022-09-07T19:45:34.785Z,13.40
2022-09-07T19:46:34.813Z,16.50
2022-09-07T19:47:34.748Z,14.70
2022-09-07T19:48:34.734Z,14.50
2022-09-07T19:49:34.746Z,13.80
2022-09-07T19:50:34.725Z,17.20
2022-09-07T19:51:36.793Z,17.20
2022-09-07T19:52:34.684Z,13.40
2022-09-07T19:53:34.675Z,16.20
2022-09-07T19:54:34.663Z,15.80
2022-09-07T19:55:34.655Z,15.20
2022-09-07T19:56:34.647Z,16.70
2022-09-07T19:57:34.625Z,14.90
2022-09-07T19:58:34.620Z,17.10
2022-09-07T19:59:34.596Z,19.40
2022-09-07T20:00:34.677Z,18.40
2022-09-07T20:01:34.588Z,16.30
2022-09-07T20:02:34.547Z,14.10
2022-09-07T20:03:34.771Z,14.20
2022-09-07T20:04:34.570Z,18.00
2022-09-07T20:05:34.526Z,19.40
2022-09-07T20:06:34.503Z,17.30
2022-09-07T20:07:34.496Z,17.10
2022-09-07T20:08:34.485Z,17.20
2022-09-07T20:09:34.496Z,17.30
2022-09-07T20:10:34.535Z,18.00
2022-09-07T20:11:34.445Z,18.60
2022-09-07T20:12:34.425Z,19.80
2022-09-07T20:13:34.551Z,18.90
2022-09-07T20:14:34.431Z,19.70
2022-09-07T20:15:34.407Z,19.50
2022-09-07T20:16:34.440Z,20.80
2022-09-07T20:17:35.522Z,22.20
2022-09-07T20:18:34.345Z,19.50
2022-09-07T20:19:34.336Z,19.20
2022-09-07T20:20:34.492Z,18.90
2022-09-07T20:21:34.305Z,20.00
2022-09-07T20:22:34.294Z,18.90
2022-09-07T20:23:34.374Z,19.80
2022-09-07T20:24:34.388Z,21.10
2022-09-07T20:25:34.275Z,20.00
2022-09-07T20:26:34.244Z,18.90
2022-09-07T20:27:34.225Z,20.20
2022-09-07T20:28:34.245Z,20.60
2022-09-07T20:29:34.205Z,20.00
2022-09-07T20:30:34.195Z,20.20
2022-09-07T20:31:34.279Z,19.20
2022-09-07T20:32:34.168Z,21.20
2022-09-07T20:33:34.228Z,22.20
2022-09-07T20:34:34.156Z,19.50
2022-09-07T20:35:34.125Z,21.10
2022-09-07T20:36:34.127Z,20.30
2022-09-07T20:37:34.096Z,21.00
2022-09-07T20:38:34.086Z,19.80
2022-09-07T20:39:38.506Z,21.70
2022-09-07T20:40:35.056Z,23.10
2022-09-07T20:41:34.088Z,20.10
2022-09-07T20:42:34.036Z,21.00
2022-09-07T20:43:34.155Z,22.20
2022-09-07T20:44:34.005Z,20.10
2022-09-07T20:45:33.996Z,19.60
2022-09-07T20:46:34.078Z,20.40
2022-09-07T20:47:33.966Z,19.10
2022-09-07T20:48:33.964Z,23.10
2022-09-07T20:49:33.945Z,19.50
2022-09-07T20:50:33.936Z,23.50
2022-09-07T20:51:33.925Z,20.40
2022-09-07T20:52:33.905Z,19.40
2022-09-07T20:53:33.955Z,22.30
2022-09-07T20:54:33.887Z,21.40
2022-09-07T20:55:40.934Z,20.10
2022-09-07T20:56:33.885Z,21.30
2022-09-07T20:57:33.843Z,21.20
2022-09-07T20:58:33.895Z,22.90
2022-09-07T20:59:33.812Z,21.00
